Time;durP1;ratioP1;P1;durP2;ratioP2;P2;SDS_P1;SDS_P2;PMS_P1;PMS_P2;Temp;Humidity;BMP_temperature;BMP_pressure;BME280_temperature;BME280_humidity;BME280_pressure;Samples;Min_cycle;Max_cycle;Signal;HPM_P1;HPM_P2
2023/07/25 00:00:25;;;;;;;3.67;3.38;;;16.30;99.90;;;;;;5053639;28;20249;-31
2023/07/25 00:02:51;;;;;;;4.05;3.53;;;16.30;99.90;;;;;;5034763;28;20182;-30
2023/07/25 00:05:16;;;;;;;4.97;3.87;;;16.30;99.90;;;;;;5048102;28;20185;-30
2023/07/25 00:07:42;;;;;;;4.97;3.67;;;16.30;99.90;;;;;;5048572;28;20186;-29
2023/07/25 00:10:08;;;;;;;4.27;3.77;;;16.30;99.90;;;;;;5048336;28;20208;-31
2023/07/25 00:12:36;;;;;;;4.78;4.00;;;16.20;99.90;;;;;;5049019;28;20197;-30
2023/07/25 00:15:02;;;;;;;3.80;3.47;;;16.20;99.90;;;;;;5048216;28;20201;-30
2023/07/25 00:17:28;;;;;;;4.63;4.10;;;16.10;99.90;;;;;;5048468;28;20457;-30
2023/07/25 00:19:54;;;;;;;4.60;4.10;;;16.10;99.90;;;;;;5049909;28;20201;-30
2023/07/25 00:22:20;;;;;;;4.43;4.03;;;16.10;99.90;;;;;;5052477;28;20231;-30
2023/07/25 00:24:46;;;;;;;4.17;3.50;;;16.00;99.90;;;;;;5057658;28;20178;-30
2023/07/25 00:27:12;;;;;;;4.30;3.90;;;16.00;99.90;;;;;;5033832;28;20179;-30
2023/07/25 00:29:37;;;;;;;6.10;4.03;;;16.00;99.90;;;;;;5056165;28;20230;-30
2023/07/25 00:32:04;;;;;;;5.00;4.07;;;16.00;99.90;;;;;;5069106;28;20201;-30
2023/07/25 00:34:30;;;;;;;6.00;3.80;;;16.00;99.90;;;;;;5047452;28;20181;-31
2023/07/25 00:36:55;;;;;;;5.27;4.10;;;16.00;99.90;;;;;;5050679;28;20268;-29
2023/07/25 00:39:22;;;;;;;4.70;3.87;;;16.00;99.90;;;;;;5042279;28;20228;-28
2023/07/25 00:41:48;;;;;;;4.27;3.87;;;16.00;99.90;;;;;;5049363;28;20232;-29
2023/07/25 00:44:13;;;;;;;5.13;3.97;;;16.00;99.90;;;;;;5037627;28;20204;-29
2023/07/25 00:46:41;;;;;;;12.27;4.27;;;16.00;99.90;;;;;;5067877;28;20230;-29
2023/07/25 00:49:07;;;;;;;4.87;4.00;;;16.00;99.90;;;;;;5049403;28;20205;-30
2023/07/25 00:51:34;;;;;;;4.57;3.57;;;16.00;99.90;;;;;;5054405;28;20238;-29
2023/07/25 00:54:00;;;;;;;6.03;3.83;;;16.00;99.90;;;;;;5037809;28;20204;-29
2023/07/25 00:56:27;;;;;;;4.30;3.90;;;15.90;99.90;;;;;;5050769;28;20184;-30
2023/07/25 00:58:54;;;;;;;5.90;3.93;;;16.00;99.90;;;;;;5040116;28;20206;-30
2023/07/25 01:01:22;;;;;;;5.33;4.57;;;16.00;99.90;;;;;;5061693;28;20177;-30
2023/07/25 01:03:48;;;;;;;5.23;4.00;;;15.90;99.90;;;;;;5039536;28;20197;-29
2023/07/25 01:06:15;;;;;;;6.50;3.87;;;15.90;99.90;;;;;;5048923;28;20177;-30
2023/07/25 01:08:54;;;;;;;4.70;3.97;;;15.90;99.90;;;;;;5040735;28;20202;-30
2023/07/25 01:11:21;;;;;;;5.77;4.30;;;15.80;99.90;;;;;;5044257;28;20183;-30
2023/07/25 01:13:48;;;;;;;7.90;4.10;;;15.80;99.90;;;;;;5051973;28;20196;-30
2023/07/25 01:16:21;;;;;;;4.20;3.73;;;15.80;99.90;;;;;;5040613;28;20264;-29
2023/07/25 01:18:47;;;;;;;6.70;4.13;;;15.80;99.90;;;;;;5052229;28;21493;-29
2023/07/25 01:21:14;;;;;;;4.60;4.10;;;15.80;99.90;;;;;;5055768;28;20182;-30
2023/07/25 01:23:43;;;;;;;5.43;4.00;;;15.70;99.90;;;;;;5050860;28;20174;-29
2023/07/25 01:26:09;;;;;;;4.13;3.47;;;15.70;99.90;;;;;;5036104;28;20183;-30
2023/07/25 01:28:37;;;;;;;3.87;3.47;;;15.50;99.90;;;;;;5042480;28;20221;-30
2023/07/25 01:31:03;;;;;;;4.93;3.40;;;15.50;99.90;;;;;;5052973;28;20174;-29
2023/07/25 01:33:29;;;;;;;6.17;3.83;;;15.40;99.90;;;;;;5042145;28;20181;-30
2023/07/25 01:35:54;;;;;;;4.93;3.93;;;15.30;99.90;;;;;;5034760;28;20182;-31
2023/07/25 01:38:20;;;;;;;4.77;3.97;;;15.40;99.90;;;;;;5056703;28;20210;-29
2023/07/25 01:40:46;;;;;;;6.03;4.23;;;15.30;99.90;;;;;;5059558;28;20189;-29
2023/07/25 01:43:12;;;;;;;7.20;4.23;;;15.30;99.90;;;;;;5050060;28;20174;-29
2023/07/25 01:45:38;;;;;;;5.00;4.50;;;15.20;99.90;;;;;;5052207;28;20182;-30
2023/07/25 01:48:04;;;;;;;5.23;3.87;;;15.20;99.90;;;;;;5061846;28;20323;-29
2023/07/25 01:50:30;;;;;;;6.13;4.73;;;15.30;99.90;;;;;;5056310;28;20332;-31
2023/07/25 01:52:56;;;;;;;4.73;4.10;;;15.30;99.90;;;;;;5050700;28;20192;-31
2023/07/25 01:55:22;;;;;;;5.63;4.87;;;15.30;99.90;;;;;;5056608;28;20186;-30
2023/07/25 01:57:48;;;;;;;5.37;4.47;;;15.40;99.90;;;;;;5041973;28;20211;-30
2023/07/25 02:00:14;;;;;;;5.57;4.40;;;15.40;99.90;;;;;;5049297;28;20619;-30
2023/07/25 02:02:40;;;;;;;5.43;4.47;;;15.40;99.90;;;;;;5056126;28;20186;-30
2023/07/25 02:05:06;;;;;;;6.07;4.77;;;15.40;99.90;;;;;;5049891;28;20201;-30
2023/07/25 02:07:32;;;;;;;6.60;4.80;;;15.50;99.90;;;;;;5032313;28;20193;-31
2023/07/25 02:09:58;;;;;;;5.90;4.30;;;15.50;99.90;;;;;;5052606;28;20194;-30
2023/07/25 02:12:25;;;;;;;5.90;4.13;;;15.40;99.90;;;;;;5038723;28;20296;-30
2023/07/25 02:14:51;;;;;;;5.97;4.57;;;15.50;99.90;;;;;;5066239;28;20281;-30
2023/07/25 02:17:19;;;;;;;4.57;4.10;;;15.60;99.90;;;;;;5070221;28;20219;-30
2023/07/25 02:19:45;;;;;;;5.80;5.00;;;15.60;99.90;;;;;;5052880;28;20196;-30
2023/07/25 02:22:11;;;;;;;7.43;4.53;;;15.60;99.90;;;;;;5058052;28;20178;-31
2023/07/25 02:24:37;;;;;;;8.70;4.80;;;15.50;99.90;;;;;;5037717;28;20194;-31
2023/07/25 02:27:03;;;;;;;5.83;4.90;;;15.50;99.90;;;;;;5056261;28;20198;-30
2023/07/25 02:29:30;;;;;;;6.73;4.57;;;15.50;99.90;;;;;;5059132;28;20197;-30
2023/07/25 02:31:56;;;;;;;6.37;4.63;;;15.50;99.90;;;;;;5055997;28;20178;-30
2023/07/25 02:34:22;;;;;;;4.43;3.97;;;15.40;99.90;;;;;;5038139;28;20223;-30
2023/07/25 02:36:47;;;;;;;5.40;3.80;;;15.40;99.90;;;;;;5059245;28;20277;-30
2023/07/25 02:39:13;;;;;;;4.20;3.80;;;15.40;99.90;;;;;;5040185;28;20214;-30
2023/07/25 02:41:39;;;;;;;4.60;4.00;;;15.40;99.90;;;;;;5060264;28;20194;-30
2023/07/25 02:44:05;;;;;;;6.17;4.20;;;15.40;99.90;;;;;;5042631;28;20220;-29
2023/07/25 02:46:31;;;;;;;4.90;4.20;;;15.30;99.90;;;;;;5064343;28;20321;-29
2023/07/25 02:48:57;;;;;;;4.20;3.80;;;15.20;99.90;;;;;;5043875;28;20261;-30
2023/07/25 02:51:23;;;;;;;4.60;4.20;;;15.20;99.90;;;;;;5039207;28;20183;-30
2023/07/25 02:53:48;;;;;;;6.53;3.90;;;15.10;99.90;;;;;;5058239;28;20243;-30
2023/07/25 02:56:14;;;;;;;5.87;4.00;;;15.10;99.90;;;;;;5050679;28;20240;-30
2023/07/25 02:58:40;;;;;;;4.30;3.90;;;15.10;99.90;;;;;;5051167;28;20232;-30
2023/07/25 03:01:06;;;;;;;5.40;3.83;;;15.10;99.90;;;;;;5036250;28;20185;-29
2023/07/25 03:03:32;;;;;;;4.90;3.77;;;15.10;99.90;;;;;;5045315;28;20178;-30
2023/07/25 03:05:57;;;;;;;4.23;3.77;;;15.00;99.90;;;;;;5058013;28;20182;-30
2023/07/25 03:08:23;;;;;;;4.87;3.57;;;14.90;99.90;;;;;;5038407;28;20206;-30
2023/07/25 03:10:49;;;;;;;5.20;4.40;;;14.80;99.90;;;;;;5050152;28;20190;-29
2023/07/25 03:13:15;;;;;;;4.83;4.33;;;14.80;99.90;;;;;;5034499;28;20193;-29
2023/07/25 03:15:41;;;;;;;4.33;3.53;;;14.80;99.90;;;;;;5064563;28;20199;-28
2023/07/25 03:18:07;;;;;;;6.17;4.50;;;14.90;99.90;;;;;;5038047;28;20201;-29
2023/07/25 03:20:33;;;;;;;4.50;3.70;;;15.00;99.90;;;;;;5051438;28;20178;-30
2023/07/25 03:22:59;;;;;;;5.20;4.23;;;15.00;99.90;;;;;;5063735;28;20470;-30
2023/07/25 03:25:24;;;;;;;5.07;4.20;;;15.10;99.90;;;;;;5050527;28;20684;-30
2023/07/25 03:27:51;;;;;;;5.17;4.33;;;15.10;99.90;;;;;;5052754;28;20181;-29
2023/07/25 03:30:18;;;;;;;5.57;4.60;;;15.20;99.90;;;;;;5034332;28;20205;-30
2023/07/25 03:32:43;;;;;;;5.27;4.33;;;15.20;99.90;;;;;;5052785;28;20204;-29
2023/07/25 03:35:09;;;;;;;8.50;4.67;;;15.30;99.90;;;;;;5037167;28;20190;-30
2023/07/25 03:37:37;;;;;;;5.87;4.33;;;15.30;99.90;;;;;;5050004;28;20198;-29
2023/07/25 03:40:03;;;;;;;5.53;4.40;;;15.30;99.90;;;;;;5050460;28;20194;-29
2023/07/25 03:42:29;;;;;;;6.37;4.83;;;15.40;99.90;;;;;;5051688;28;20185;-29
2023/07/25 03:44:55;;;;;;;6.80;4.40;;;15.40;99.90;;;;;;5057523;28;20205;-30
2023/07/25 03:47:21;;;;;;;6.80;4.63;;;15.40;99.90;;;;;;5049909;28;20220;-30
2023/07/25 03:49:48;;;;;;;6.47;4.43;;;15.40;99.90;;;;;;5031780;28;20213;-30
2023/07/25 03:52:15;;;;;;;8.03;4.80;;;15.40;99.90;;;;;;5049376;28;20189;-30
2023/07/25 03:54:42;;;;;;;7.03;4.30;;;15.40;99.90;;;;;;5049692;28;20194;-29
2023/07/25 03:57:08;;;;;;;6.63;4.53;;;15.50;99.90;;;;;;5048513;28;20186;-30
2023/07/25 03:59:34;;;;;;;4.30;3.90;;;15.50;99.90;;;;;;5057213;28;20197;-29
2023/07/25 04:01:59;;;;;;;4.93;4.00;;;15.60;99.90;;;;;;5049740;28;20429;-30
2023/07/25 04:04:25;;;;;;;5.13;4.00;;;15.60;99.90;;;;;;5055420;28;20208;-30
2023/07/25 04:06:51;;;;;;;6.23;4.13;;;15.60;99.90;;;;;;5047400;28;20173;-30
2023/07/25 04:09:17;;;;;;;6.67;4.00;;;15.60;99.90;;;;;;5034522;28;20208;-29
2023/07/25 04:11:43;;;;;;;5.93;4.03;;;15.60;99.90;;;;;;5053747;28;20185;-29
2023/07/25 04:14:08;;;;;;;6.93;4.10;;;15.60;99.90;;;;;;5045819;28;20192;-30
2023/07/25 04:16:34;;;;;;;4.30;3.90;;;15.70;99.90;;;;;;5047769;28;20188;-30
2023/07/25 04:19:00;;;;;;;4.00;3.53;;;15.70;99.90;;;;;;5056781;28;20214;-30
2023/07/25 04:21:26;;;;;;;5.20;4.10;;;15.70;99.90;;;;;;5049360;28;20212;-30
2023/07/25 04:23:52;;;;;;;4.47;4.07;;;15.70;99.90;;;;;;5039815;28;20178;-30
2023/07/25 04:26:18;;;;;;;8.43;4.03;;;15.70;99.90;;;;;;5049539;28;20181;-29
2023/07/25 04:28:43;;;;;;;4.70;4.13;;;15.70;99.90;;;;;;5049343;28;20201;-30
2023/07/25 04:31:09;;;;;;;8.10;4.37;;;15.70;99.90;;;;;;5032673;28;20189;-30
2023/07/25 04:33:35;;;;;;;6.53;4.03;;;15.70;99.90;;;;;;5049082;28;20177;-30
2023/07/25 04:36:01;;;;;;;6.23;3.80;;;15.70;99.90;;;;;;5035846;28;20268;-30
2023/07/25 04:38:27;;;;;;;7.90;4.00;;;15.70;99.90;;;;;;5040514;28;20213;-30
2023/07/25 04:40:53;;;;;;;6.33;4.13;;;15.70;99.90;;;;;;5046239;28;20182;-30
2023/07/25 04:43:20;;;;;;;10.07;4.23;;;15.80;99.90;;;;;;5047984;28;20248;-30
2023/07/25 04:45:46;;;;;;;6.13;4.17;;;15.80;99.90;;;;;;5046718;28;20183;-30
2023/07/25 04:48:11;;;;;;;8.47;4.43;;;15.70;99.90;;;;;;5028975;28;20182;-31
2023/07/25 04:50:37;;;;;;;6.27;3.90;;;15.70;99.90;;;;;;5047563;28;20736;-30
2023/07/25 04:53:04;;;;;;;8.27;4.17;;;15.70;99.90;;;;;;5043660;28;20186;-31
2023/07/25 04:55:29;;;;;;;5.23;3.77;;;15.60;99.90;;;;;;5046013;28;20239;-30
2023/07/25 04:57:55;;;;;;;5.03;4.00;;;15.60;99.90;;;;;;5031132;28;20201;-31
2023/07/25 05:00:21;;;;;;;5.17;3.83;;;15.60;99.90;;;;;;5046084;28;20233;-30
2023/07/25 05:02:47;;;;;;;6.87;3.80;;;15.60;99.90;;;;;;5061434;28;20189;-30
2023/07/25 05:05:13;;;;;;;4.23;3.80;;;15.60;99.90;;;;;;5048506;28;20182;-31
2023/07/25 05:07:39;;;;;;;4.27;3.50;;;15.60;99.90;;;;;;5056716;28;20189;-31
2023/07/25 05:10:05;;;;;;;5.80;4.07;;;15.60;99.90;;;;;;5048675;28;20216;-31
2023/07/25 05:12:31;;;;;;;6.40;4.23;;;15.60;99.90;;;;;;5049104;28;20211;-31
2023/07/25 05:14:57;;;;;;;6.67;4.40;;;15.60;99.90;;;;;;5065233;28;20194;-30
2023/07/25 05:17:23;;;;;;;8.23;4.23;;;15.60;99.90;;;;;;5055483;28;20344;-30
2023/07/25 05:19:49;;;;;;;8.33;4.23;;;15.70;99.90;;;;;;5065703;28;20208;-31
2023/07/25 05:22:14;;;;;;;10.33;4.27;;;15.70;99.90;;;;;;5040791;28;20192;-31
2023/07/25 05:24:40;;;;;;;9.00;4.53;;;15.70;99.90;;;;;;5051705;28;20178;-30
2023/07/25 05:27:06;;;;;;;7.20;3.80;;;15.80;99.90;;;;;;5066007;28;20238;-31
2023/07/25 05:29:33;;;;;;;5.83;3.60;;;15.80;99.90;;;;;;5051917;28;20201;-30
2023/07/25 05:31:59;;;;;;;5.30;3.83;;;15.80;99.90;;;;;;5032720;28;20193;-31
2023/07/25 05:34:25;;;;;;;6.27;4.60;;;15.90;99.90;;;;;;5065186;28;20181;-31
2023/07/25 05:36:51;;;;;;;6.40;4.03;;;15.90;99.90;;;;;;5040651;28;20213;-30
2023/07/25 05:39:17;;;;;;;7.07;4.60;;;15.90;99.90;;;;;;5032538;28;20224;-31
2023/07/25 05:41:43;;;;;;;5.83;4.10;;;16.00;99.90;;;;;;5045602;28;20175;-30
2023/07/25 05:44:09;;;;;;;6.63;4.57;;;16.10;99.90;;;;;;5052363;28;20182;-30
2023/07/25 05:46:35;;;;;;;8.53;4.20;;;16.10;99.90;;;;;;5052760;28;20186;-31
2023/07/25 05:49:01;;;;;;;4.83;4.13;;;16.20;99.90;;;;;;5054018;28;20209;-31
2023/07/25 05:51:26;;;;;;;7.40;4.50;;;16.20;99.90;;;;;;5050501;28;20181;-31
2023/07/25 05:53:52;;;;;;;6.90;4.63;;;16.20;99.90;;;;;;5042385;28;20178;-31
2023/07/25 05:56:18;;;;;;;5.10;4.10;;;16.30;99.90;;;;;;5052473;28;20213;-31
2023/07/25 05:58:44;;;;;;;5.83;4.73;;;16.30;99.90;;;;;;5060114;28;20205;-31
2023/07/25 06:01:10;;;;;;;6.47;4.70;;;16.40;99.90;;;;;;5044651;28;20289;-30
2023/07/25 06:03:36;;;;;;;7.77;4.30;;;16.40;99.90;;;;;;5036537;28;20250;-30
2023/07/25 06:06:01;;;;;;;6.00;4.90;;;16.40;99.90;;;;;;5052098;28;20251;-31
2023/07/25 06:08:27;;;;;;;7.37;5.20;;;16.40;99.90;;;;;;5033341;28;20214;-31
2023/07/25 06:10:53;;;;;;;7.17;5.13;;;16.50;99.90;;;;;;5052062;28;20212;-30
2023/07/25 06:13:20;;;;;;;11.03;4.80;;;16.40;99.90;;;;;;5047838;28;20185;-30
2023/07/25 06:15:46;;;;;;;5.67;4.70;;;16.50;99.90;;;;;;5046008;28;20212;-30
2023/07/25 06:18:12;;;;;;;7.47;5.00;;;16.50;99.90;;;;;;5051559;28;20209;-30
2023/07/25 06:20:38;;;;;;;7.00;4.77;;;16.50;99.90;;;;;;5050617;28;20182;-31
2023/07/25 06:23:04;;;;;;;4.87;4.40;;;16.60;99.90;;;;;;5043374;28;20189;-30
2023/07/25 06:25:30;;;;;;;6.73;3.90;;;16.60;99.90;;;;;;5036759;28;20187;-31
2023/07/25 06:27:56;;;;;;;5.63;3.70;;;16.70;99.90;;;;;;5052823;28;20185;-31
2023/07/25 06:30:22;;;;;;;5.77;4.03;;;16.70;99.90;;;;;;5063895;28;20204;-30
2023/07/25 06:32:48;;;;;;;6.33;4.20;;;16.70;99.90;;;;;;5057232;28;20186;-30
2023/07/25 06:35:14;;;;;;;5.50;4.47;;;16.70;99.90;;;;;;5056423;28;20188;-31
2023/07/25 06:37:40;;;;;;;6.90;4.45;;;16.80;99.90;;;;;;5056926;28;20213;-30
2023/07/25 06:40:06;;;;;;;6.03;4.33;;;16.80;99.90;;;;;;5042276;28;20244;-30
2023/07/25 06:42:32;;;;;;;5.83;4.33;;;16.90;99.90;;;;;;5065572;28;20177;-31
2023/07/25 06:45:00;;;;;;;7.00;4.40;;;16.90;99.90;;;;;;5045890;28;20182;-30
2023/07/25 06:47:26;;;;;;;5.40;4.20;;;16.90;99.90;;;;;;5035181;28;20207;-31
2023/07/25 06:49:52;;;;;;;9.35;5.25;;;17.00;99.90;;;;;;5043572;28;20205;-30
2023/07/25 06:52:18;;;;;;;5.97;4.25;;;17.00;99.90;;;;;;5059562;28;20182;-30
2023/07/25 06:54:44;;;;;;;6.93;4.50;;;17.00;99.90;;;;;;5050975;28;20209;-30
2023/07/25 06:57:10;;;;;;;5.40;4.63;;;17.00;99.90;;;;;;5034647;28;20273;-31
2023/07/25 06:59:36;;;;;;;6.70;4.33;;;17.00;99.90;;;;;;5041222;28;20189;-30
2023/07/25 07:02:02;;;;;;;6.80;4.27;;;17.10;99.90;;;;;;5043206;28;20178;-30
2023/07/25 07:04:28;;;;;;;5.80;3.83;;;17.10;99.90;;;;;;5030809;28;20202;-30
2023/07/25 07:06:54;;;;;;;6.22;3.30;;;17.20;99.90;;;;;;5051660;28;20236;-31
2023/07/25 07:09:20;;;;;;;7.32;3.58;;;17.20;99.90;;;;;;5039135;28;20215;-31
2023/07/25 07:11:46;;;;;;;5.43;3.95;;;17.30;99.90;;;;;;5051522;28;20186;-30
2023/07/25 07:14:12;;;;;;;7.45;4.07;;;17.50;99.90;;;;;;5042569;28;20186;-31
2023/07/25 07:16:37;;;;;;;8.02;3.97;;;17.60;99.90;;;;;;5051114;28;20182;-31
2023/07/25 07:19:03;;;;;;;4.88;3.78;;;17.60;99.90;;;;;;5042738;28;20217;-30
2023/07/25 07:21:30;;;;;;;4.15;3.35;;;17.60;99.90;;;;;;5041130;28;20186;-31
2023/07/25 07:23:55;;;;;;;4.05;3.30;;;17.50;99.90;;;;;;5049509;28;20231;-31
2023/07/25 07:26:21;;;;;;;4.15;3.38;;;17.60;99.90;;;;;;5050777;28;20190;-30
2023/07/25 07:28:47;;;;;;;6.13;3.78;;;17.60;99.90;;;;;;5042140;28;20200;-31
2023/07/25 07:31:15;;;;;;;5.70;3.95;;;17.70;99.90;;;;;;5051709;28;20190;-30
2023/07/25 07:33:40;;;;;;;7.45;4.07;;;17.70;99.90;;;;;;5049725;28;20182;-31
2023/07/25 07:36:07;;;;;;;6.72;4.10;;;17.70;99.90;;;;;;5049607;28;20184;-30
2023/07/25 07:38:33;;;;;;;5.22;3.83;;;17.80;99.90;;;;;;5033722;28;20226;-31
2023/07/25 07:40:59;;;;;;;4.50;3.70;;;17.80;99.90;;;;;;5050348;28;20186;-30
2023/07/25 07:43:25;;;;;;;5.38;4.05;;;17.90;99.90;;;;;;5062985;28;20177;-29
2023/07/25 07:45:50;;;;;;;4.13;3.08;;;17.90;99.90;;;;;;5046768;28;20193;-30
2023/07/25 07:48:16;;;;;;;4.35;3.85;;;17.90;99.90;;;;;;5050201;28;20268;-30
2023/07/25 07:50:43;;;;;;;4.00;3.60;;;18.00;99.90;;;;;;5034285;28;20248;-30
2023/07/25 07:53:10;;;;;;;3.95;3.53;;;18.00;99.90;;;;;;5049871;28;20353;-31
2023/07/25 07:55:35;;;;;;;4.45;3.60;;;18.10;99.90;;;;;;5039814;28;20180;-31
2023/07/25 07:58:02;;;;;;;5.50;3.55;;;18.20;99.90;;;;;;5050572;28;20197;-30
2023/07/25 08:00:28;;;;;;;5.60;3.72;;;18.20;99.90;;;;;;5070515;28;20219;-30
2023/07/25 08:02:54;;;;;;;5.20;3.33;;;18.30;99.90;;;;;;5045266;28;20174;-30
2023/07/25 08:05:20;;;;;;;4.55;3.60;;;18.40;99.90;;;;;;5070350;28;20184;-31
2023/07/25 08:07:46;;;;;;;6.28;3.47;;;18.60;99.90;;;;;;5052463;28;20272;-31
2023/07/25 08:10:12;;;;;;;5.35;3.35;;;18.80;99.90;;;;;;5047596;28;20773;-31
2023/07/25 08:12:38;;;;;;;4.32;3.05;;;18.90;99.90;;;;;;5039574;28;20260;-30
2023/07/25 08:15:05;;;;;;;2.75;2.40;;;19.00;99.90;;;;;;5053801;28;20193;-30
2023/07/25 08:17:31;;;;;;;3.97;2.78;;;19.00;99.90;;;;;;5054034;28;20208;-30
2023/07/25 08:19:57;;;;;;;3.03;2.70;;;19.10;99.90;;;;;;5051027;28;20197;-30
2023/07/25 08:22:22;;;;;;;3.53;2.45;;;19.20;99.90;;;;;;5041762;28;20196;-31
2023/07/25 08:24:52;;;;;;;3.05;2.53;;;19.30;99.90;;;;;;5043118;28;20185;-30
2023/07/25 08:27:17;;;;;;;7.43;4.57;;;19.20;99.90;;;;;;5050117;28;20186;-30
2023/07/25 08:29:45;;;;;;;4.35;3.40;;;19.20;99.90;;;;;;5043467;28;20208;-31
2023/07/25 08:32:11;;;;;;;2.63;2.40;;;19.10;99.90;;;;;;5050197;28;20170;-31
2023/07/25 08:34:39;;;;;;;12.77;10.55;;;19.10;99.90;;;;;;5057380;28;20177;-30
2023/07/25 08:37:06;;;;;;;3.35;2.50;;;19.10;99.90;;;;;;5053334;28;20181;-30
2023/07/25 08:39:33;;;;;;;2.80;2.15;;;19.10;99.90;;;;;;5053208;28;20228;-31
2023/07/25 08:42:03;;;;;;;2.58;2.10;;;19.00;99.90;;;;;;5049361;28;20316;-31
2023/07/25 08:44:32;;;;;;;5.60;2.67;;;18.80;99.90;;;;;;5045488;28;20177;-31
2023/07/25 08:47:01;;;;;;;2.30;1.90;;;18.70;99.90;;;;;;5052754;28;20207;-31
2023/07/25 08:49:30;;;;;;;3.25;2.20;;;18.50;99.90;;;;;;5042073;28;20225;-31
2023/07/25 08:52:01;;;;;;;2.85;1.95;;;18.50;99.90;;;;;;5049276;28;20184;-31
2023/07/25 08:54:31;;;;;;;3.58;1.70;;;18.50;99.90;;;;;;5045373;28;20189;-30
2023/07/25 08:56:57;;;;;;;2.60;1.50;;;18.40;99.90;;;;;;5049339;28;20255;-31
2023/07/25 08:59:24;;;;;;;2.35;1.42;;;18.40;99.90;;;;;;5052849;28;20208;-30
2023/07/25 09:01:53;;;;;;;2.30;1.35;;;18.60;99.90;;;;;;5041656;28;20201;-30
2023/07/25 09:04:23;;;;;;;2.75;1.40;;;18.80;99.90;;;;;;5041029;28;20251;-31
2023/07/25 09:06:49;;;;;;;2.35;1.88;;;18.90;99.90;;;;;;5040211;28;20182;-30
2023/07/25 09:09:16;;;;;;;1.42;1.30;;;19.10;99.90;;;;;;5047715;28;20213;-30
2023/07/25 09:11:44;;;;;;;1.88;1.52;;;19.30;99.90;;;;;;5053545;28;20189;-31
2023/07/25 09:14:13;;;;;;;2.38;1.50;;;19.40;99.90;;;;;;5070279;28;20201;-30
2023/07/25 09:16:39;;;;;;;1.80;1.25;;;19.40;99.90;;;;;;5050815;28;20188;-30
2023/07/25 09:19:06;;;;;;;1.83;1.40;;;19.50;99.90;;;;;;5055391;28;20206;-30
2023/07/25 09:21:32;;;;;;;1.85;1.50;;;19.40;99.90;;;;;;5045356;28;20237;-30
2023/07/25 09:23:59;;;;;;;2.72;1.58;;;19.70;99.90;;;;;;5043386;28;20286;-30
2023/07/25 09:26:27;;;;;;;3.70;1.27;;;19.70;99.90;;;;;;5053370;28;20181;-30
2023/07/25 09:28:55;;;;;;;2.35;1.40;;;19.70;99.90;;;;;;5045444;28;20233;-30
2023/07/25 09:31:22;;;;;;;1.70;1.30;;;19.90;99.90;;;;;;5056617;28;20196;-30
2023/07/25 09:33:57;;;;;;;1.98;1.60;;;20.00;99.90;;;;;;5042856;28;20203;-30
2023/07/25 09:36:23;;;;;;;2.22;1.20;;;20.10;99.90;;;;;;5053398;28;20184;-31
2023/07/25 09:38:50;;;;;;;1.77;1.48;;;20.10;99.90;;;;;;5058937;28;20233;-30
2023/07/25 09:41:17;;;;;;;2.45;1.50;;;20.30;99.90;;;;;;5052673;28;20710;-30
2023/07/25 09:43:43;;;;;;;1.70;1.50;;;20.50;99.90;;;;;;5042534;28;20219;-30
2023/07/25 09:46:09;;;;;;;2.03;1.60;;;20.50;99.90;;;;;;5041362;28;20186;-30
2023/07/25 09:48:35;;;;;;;2.67;1.55;;;20.60;99.90;;;;;;5053166;28;20285;-30
2023/07/25 09:51:03;;;;;;;2.35;1.58;;;20.40;99.90;;;;;;5045123;28;20273;-30
2023/07/25 09:53:29;;;;;;;1.95;1.50;;;20.40;99.90;;;;;;5063488;28;20185;-30
2023/07/25 09:55:56;;;;;;;1.70;1.50;;;20.40;99.90;;;;;;5063033;28;20181;-30
2023/07/25 09:58:22;;;;;;;3.03;1.60;;;20.60;99.90;;;;;;5049050;28;20300;-30
2023/07/25 10:00:48;;;;;;;3.28;1.60;;;20.50;99.90;;;;;;5054217;28;20177;-31
2023/07/25 10:03:17;;;;;;;2.22;1.70;;;20.50;99.90;;;;;;5052815;28;20220;-30
2023/07/25 10:05:44;;;;;;;2.92;1.50;;;20.40;99.90;;;;;;5035514;28;20287;-29
2023/07/25 10:08:16;;;;;;;2.13;1.70;;;20.40;99.90;;;;;;5049177;28;20182;-30
2023/07/25 10:10:42;;;;;;;2.53;1.80;;;20.50;99.90;;;;;;5051960;28;20199;-29
2023/07/25 10:13:09;;;;;;;2.83;1.90;;;20.70;99.90;;;;;;5035423;28;20178;-30
2023/07/25 10:15:36;;;;;;;6.93;2.13;;;20.80;99.90;;;;;;5054140;28;20260;-31
2023/07/25 10:18:19;;;;;;;1.80;1.60;;;21.00;99.90;;;;;;5036851;28;20202;-30
2023/07/25 10:20:46;;;;;;;2.50;1.70;;;21.10;99.90;;;;;;5037446;28;20189;-30
2023/07/25 10:23:14;;;;;;;2.58;1.80;;;21.10;99.90;;;;;;5048461;28;20206;-30
2023/07/25 10:25:41;;;;;;;4.40;1.80;;;20.90;99.90;;;;;;5054333;28;20181;-30
2023/07/25 10:28:07;;;;;;;4.22;1.70;;;20.80;99.90;;;;;;5035331;28;20182;-29
2023/07/25 10:30:48;;;;;;;2.05;1.60;;;20.70;99.90;;;;;;5031324;28;20187;-30
2023/07/25 10:33:16;;;;;;;2.08;1.73;;;20.70;99.90;;;;;;5052105;28;20190;-31
2023/07/25 10:35:52;;;;;;;2.67;1.70;;;20.60;99.90;;;;;;5040461;28;20179;-30
2023/07/25 10:38:32;;;;;;;2.17;1.63;;;20.70;99.90;;;;;;5051805;28;20205;-31
2023/07/25 10:41:01;;;;;;;4.80;1.88;;;20.80;99.90;;;;;;5044759;28;20186;-30
2023/07/25 10:43:29;;;;;;;2.75;1.60;;;20.70;99.90;;;;;;5079920;28;20192;-31
2023/07/25 10:45:59;;;;;;;2.60;1.77;;;20.80;99.90;;;;;;5045560;28;20178;-30
2023/07/25 10:48:42;;;;;;;3.47;1.42;;;20.80;99.90;;;;;;5052399;28;20219;-31
2023/07/25 10:51:08;;;;;;;3.15;1.60;;;20.90;99.90;;;;;;5044924;28;20182;-30
2023/07/25 10:53:35;;;;;;;2.25;1.48;;;21.00;99.90;;;;;;5039733;28;20183;-31
2023/07/25 10:56:03;;;;;;;2.17;1.50;;;21.20;99.90;;;;;;5055194;28;20189;-30
2023/07/25 10:58:30;;;;;;;1.60;1.10;;;21.30;99.90;;;;;;5059434;28;20275;-31
2023/07/25 11:00:56;;;;;;;2.17;1.52;;;21.60;99.90;;;;;;5053401;28;20186;-31
2023/07/25 11:03:30;;;;;;;2.03;1.27;;;21.90;99.90;;;;;;5045702;28;20169;-32
2023/07/25 11:06:08;;;;;;;2.70;1.10;;;22.10;99.90;;;;;;5043612;28;20196;-32
2023/07/25 11:08:42;;;;;;;1.60;1.20;;;22.30;99.90;;;;;;5035827;28;20297;-31
2023/07/25 11:11:12;;;;;;;3.88;1.52;;;22.30;99.90;;;;;;5047458;28;20748;-30
2023/07/25 11:13:42;;;;;;;2.15;1.35;;;22.40;99.90;;;;;;5063146;28;20204;-33
2023/07/25 11:16:10;;;;;;;2.72;1.33;;;22.20;99.90;;;;;;5053207;28;20608;-32
2023/07/25 11:18:48;;;;;;;2.15;1.33;;;22.10;99.90;;;;;;5030729;28;20210;-32
2023/07/25 11:21:15;;;;;;;2.65;1.40;;;21.80;99.90;;;;;;5045846;28;20194;-32
2023/07/25 11:23:41;;;;;;;3.17;1.40;;;21.60;99.90;;;;;;5030429;28;20189;-31
2023/07/25 11:26:07;;;;;;;1.52;1.30;;;21.30;99.90;;;;;;5050612;28;20174;-32
2023/07/25 11:28:38;;;;;;;2.45;1.13;;;21.20;99.90;;;;;;5042575;28;20211;-32
2023/07/25 11:31:04;;;;;;;1.98;0.98;;;21.40;99.90;;;;;;5056595;28;20182;-33
2023/07/25 11:33:38;;;;;;;3.08;1.10;;;21.80;99.90;;;;;;5055083;28;20208;-32
2023/07/25 11:36:06;;;;;;;2.05;1.45;;;22.00;99.90;;;;;;5055646;28;20238;-31
2023/07/25 11:38:35;;;;;;;1.73;1.20;;;22.20;99.90;;;;;;5056931;28;20210;-32
2023/07/25 11:41:01;;;;;;;1.38;1.23;;;22.30;99.90;;;;;;5039303;28;20182;-32
2023/07/25 11:43:29;;;;;;;1.55;1.23;;;22.40;99.90;;;;;;5044410;28;20186;-32
2023/07/25 11:45:54;;;;;;;1.42;1.27;;;22.50;99.90;;;;;;5043084;28;20227;-32
2023/07/25 11:48:23;;;;;;;1.67;1.20;;;22.70;99.90;;;;;;5039886;28;20205;-33
2023/07/25 11:50:50;;;;;;;2.15;1.20;;;22.70;99.90;;;;;;5047767;28;20193;-31
2023/07/25 11:53:21;;;;;;;1.77;1.27;;;22.90;99.90;;;;;;5045530;28;20181;-33
2023/07/25 11:55:52;;;;;;;2.85;1.50;;;23.20;99.90;;;;;;5028789;28;20184;-33
2023/07/25 11:58:21;;;;;;;2.47;1.40;;;23.30;99.90;;;;;;5045065;28;20239;-31
2023/07/25 12:00:54;;;;;;;1.92;1.25;;;23.30;99.90;;;;;;5029705;28;20174;-32
2023/07/25 12:03:22;;;;;;;4.22;1.65;;;23.10;99.90;;;;;;5044974;28;20181;-33
2023/07/25 12:05:53;;;;;;;1.27;1.00;;;23.10;99.90;;;;;;5030321;28;20178;-32
2023/07/25 12:08:40;;;;;;;1.48;1.27;;;23.00;99.90;;;;;;5028509;28;20182;-33
2023/07/25 12:11:11;;;;;;;1.60;1.23;;;23.20;99.90;;;;;;5036047;28;20269;-32
2023/07/25 12:13:48;;;;;;;3.00;1.17;;;23.00;99.90;;;;;;5045608;28;20193;-32
2023/07/25 12:16:28;;;;;;;1.42;1.33;;;22.90;99.90;;;;;;5058461;28;20232;-32
2023/07/25 12:19:03;;;;;;;1.63;1.23;;;23.20;99.90;;;;;;5045518;28;20209;-32
2023/07/25 12:21:32;;;;;;;1.98;1.40;;;23.40;99.90;;;;;;5047612;28;20235;-32
2023/07/25 12:24:00;;;;;;;1.67;1.48;;;23.40;99.90;;;;;;5032897;28;20213;-32
2023/07/25 12:26:38;;;;;;;3.65;1.33;;;23.60;99.90;;;;;;5050666;28;20194;-32
2023/07/25 12:29:15;;;;;;;2.08;1.40;;;23.60;99.90;;;;;;5041473;28;20209;-32
2023/07/25 12:31:41;;;;;;;1.17;1.08;;;23.40;99.90;;;;;;5043331;28;20184;-32
2023/07/25 12:34:07;;;;;;;1.45;1.15;;;23.30;99.90;;;;;;5040968;28;20316;-32
2023/07/25 12:36:33;;;;;;;2.35;1.23;;;23.20;99.90;;;;;;5051210;28;20268;-33
2023/07/25 12:38:59;;;;;;;2.45;1.40;;;23.10;99.90;;;;;;5048553;28;20217;-32
2023/07/25 12:41:24;;;;;;;1.20;1.10;;;23.10;99.90;;;;;;5050973;28;20181;-32
2023/07/25 12:43:50;;;;;;;1.27;1.10;;;22.90;99.90;;;;;;5068853;28;20185;-32